Time;durP1;ratioP1;P1;durP2;ratioP2;P2;SDS_P1;SDS_P2;PMS_P1;PMS_P2;Temp;Humidity;BMP_temperature;BMP_pressure;BME280_temperature;BME280_humidity;BME280_pressure;Samples;Min_cycle;Max_cycle;Signal;HPM_P1;HPM_P2
2024/01/13 00:01:06;;;;;;;5.80;3.30;;;4.50;84.80;;;;;;9175559;19;20022;-71
2024/01/13 00:04:13;;;;;;;5.70;3.55;;;4.50;84.90;;;;;;9173081;19;20567;-71
2024/01/13 00:07:22;;;;;;;6.45;3.38;;;4.50;84.80;;;;;;9174434;19;20021;-71
2024/01/13 00:10:29;;;;;;;7.82;3.63;;;4.50;84.80;;;;;;9175976;19;20023;-72
2024/01/13 00:13:35;;;;;;;9.40;4.30;;;4.50;84.80;;;;;;9171640;19;20962;-72
2024/01/13 00:16:42;;;;;;;7.72;3.85;;;4.50;84.80;;;;;;9170825;19;20033;-72
2024/01/13 00:19:48;;;;;;;6.10;4.20;;;4.50;84.80;;;;;;9172843;19;20036;-72
2024/01/13 00:22:58;;;;;;;8.05;3.85;;;4.50;84.80;;;;;;9174161;19;20011;-71
2024/01/13 00:26:06;;;;;;;6.05;4.07;;;4.50;84.80;;;;;;9174639;19;20019;-72
2024/01/13 00:29:14;;;;;;;6.00;3.95;;;4.50;84.90;;;;;;9174239;19;20504;-72
2024/01/13 00:32:19;;;;;;;9.38;3.90;;;4.50;85.00;;;;;;9174597;19;20023;-72
2024/01/13 00:35:27;;;;;;;6.07;3.70;;;4.50;84.90;;;;;;9174193;19;20030;-72
2024/01/13 00:38:35;;;;;;;8.05;3.65;;;4.50;85.00;;;;;;9174620;19;20017;-73
2024/01/13 00:41:44;;;;;;;6.75;3.30;;;4.50;85.00;;;;;;9174822;19;20552;-72
2024/01/13 00:44:49;;;;;;;4.63;3.00;;;4.40;84.80;;;;;;9173536;19;20078;-71
2024/01/13 00:47:57;;;;;;;5.72;3.42;;;4.40;84.90;;;;;;9174612;19;20018;-71
2024/01/13 00:51:03;;;;;;;6.20;3.45;;;4.40;84.90;;;;;;9170824;19;20089;-71
2024/01/13 00:54:13;;;;;;;6.15;3.42;;;4.40;84.90;;;;;;9172093;19;20019;-69
2024/01/13 00:57:18;;;;;;;5.60;3.53;;;4.40;85.00;;;;;;9181799;19;20014;-69
2024/01/13 01:00:26;;;;;;;6.38;3.80;;;4.40;85.60;;;;;;9181805;19;20023;-70
2024/01/13 01:03:34;;;;;;;10.05;3.80;;;4.40;85.00;;;;;;9183748;19;20017;-68
2024/01/13 01:06:42;;;;;;;5.93;3.65;;;4.40;85.00;;;;;;9179724;19;20125;-70
2024/01/13 01:09:50;;;;;;;6.15;3.78;;;4.40;85.00;;;;;;9183566;19;20404;-70
2024/01/13 01:12:58;;;;;;;6.60;3.00;;;4.40;85.00;;;;;;9180228;19;20014;-71
2024/01/13 01:16:04;;;;;;;6.30;3.58;;;4.40;85.10;;;;;;9172828;19;20463;-70
2024/01/13 01:19:12;;;;;;;4.90;3.25;;;4.40;85.10;;;;;;9178083;19;20015;-70
2024/01/13 01:22:17;;;;;;;5.75;2.90;;;4.40;85.10;;;;;;9176989;19;20042;-71
2024/01/13 01:25:27;;;;;;;6.22;2.83;;;4.40;85.00;;;;;;9177737;19;20022;-70
2024/01/13 01:28:33;;;;;;;6.70;2.60;;;4.40;85.00;;;;;;9176078;19;20017;-71
2024/01/13 01:31:43;;;;;;;4.18;2.85;;;4.40;85.00;;;;;;9180949;19;20481;-70
2024/01/13 01:34:49;;;;;;;5.55;3.00;;;4.40;85.00;;;;;;9178442;19;20107;-71
2024/01/13 01:38:00;;;;;;;4.63;3.15;;;4.40;85.10;;;;;;9181426;19;20120;-70
2024/01/13 01:41:10;;;;;;;5.60;2.95;;;4.40;85.10;;;;;;9182392;19;20018;-70
2024/01/13 01:44:19;;;;;;;8.10;3.08;;;4.40;85.10;;;;;;9179513;19;20063;-70
2024/01/13 01:47:25;;;;;;;5.72;3.17;;;4.40;85.10;;;;;;9178031;19;20023;-70
2024/01/13 01:50:33;;;;;;;5.25;3.17;;;4.40;85.10;;;;;;9180820;19;20022;-70
2024/01/13 01:53:40;;;;;;;4.97;3.22;;;4.40;85.10;;;;;;9181448;19;20023;-70
2024/01/13 01:56:50;;;;;;;6.20;3.47;;;4.40;85.10;;;;;;9180922;19;20024;-70
2024/01/13 01:59:56;;;;;;;5.95;3.67;;;4.40;85.80;;;;;;9181137;19;20006;-70
2024/01/13 02:03:04;;;;;;;4.78;3.33;;;4.40;85.10;;;;;;9180632;19;20015;-71
2024/01/13 02:06:10;;;;;;;7.57;3.67;;;4.40;85.80;;;;;;9179373;19;20111;-70
2024/01/13 02:09:18;;;;;;;10.00;3.08;;;4.40;85.10;;;;;;9178384;19;20021;-70
2024/01/13 02:12:26;;;;;;;6.70;3.38;;;4.40;85.10;;;;;;9180128;19;20518;-70
2024/01/13 02:15:34;;;;;;;6.22;2.83;;;4.30;85.10;;;;;;9177275;19;20030;-70
2024/01/13 02:18:40;;;;;;;5.30;3.15;;;4.30;85.10;;;;;;9176027;19;20550;-70
2024/01/13 02:21:59;;;;;;;4.30;2.72;;;4.40;85.20;;;;;;9180996;19;20022;-70
2024/01/13 02:25:07;;;;;;;4.05;2.65;;;4.40;85.20;;;;;;9179835;19;20026;-70
2024/01/13 02:28:14;;;;;;;6.22;3.15;;;4.30;85.20;;;;;;9178530;19;20018;-70
2024/01/13 02:31:40;;;;;;;6.25;3.20;;;4.40;85.20;;;;;;9177695;19;20014;-71
2024/01/13 02:34:47;;;;;;;5.28;3.10;;;4.40;85.20;;;;;;9178287;19;20022;-70
2024/01/13 02:37:56;;;;;;;5.00;2.88;;;4.40;85.20;;;;;;9178294;19;20507;-70
2024/01/13 02:41:03;;;;;;;4.65;3.20;;;4.40;85.20;;;;;;9178535;19;20124;-71
2024/01/13 02:44:10;;;;;;;6.15;3.15;;;4.30;85.10;;;;;;9176036;19;20465;-70
2024/01/13 02:47:17;;;;;;;5.25;3.88;;;4.40;85.20;;;;;;9179014;19;20014;-70
2024/01/13 02:50:23;;;;;;;8.05;3.22;;;4.30;85.10;;;;;;9176543;19;20631;-70
2024/01/13 02:53:34;;;;;;;5.45;3.28;;;4.30;85.20;;;;;;9175975;19;20037;-72
2024/01/13 02:56:39;;;;;;;9.18;3.50;;;4.30;85.20;;;;;;9178391;19;20018;-74
2024/01/13 02:59:47;;;;;;;6.53;3.83;;;4.30;85.20;;;;;;9177272;19;20081;-72
2024/01/13 03:02:53;;;;;;;8.40;3.70;;;4.30;85.20;;;;;;9178666;19;20010;-70
2024/01/13 03:06:00;;;;;;;8.15;4.30;;;4.30;85.20;;;;;;9175591;19;20014;-71
2024/01/13 03:09:09;;;;;;;5.95;3.95;;;4.30;85.10;;;;;;9177159;19;20052;-71
2024/01/13 03:12:16;;;;;;;7.78;4.60;;;4.30;85.20;;;;;;9175333;19;20023;-71
2024/01/13 03:15:22;;;;;;;8.38;4.60;;;4.30;85.20;;;;;;9176520;19;20848;-72
2024/01/13 03:18:29;;;;;;;6.22;4.10;;;4.30;85.20;;;;;;9173442;19;20467;-72
2024/01/13 03:21:44;;;;;;;9.57;4.75;;;4.30;85.20;;;;;;9176898;19;20019;-70
2024/01/13 03:24:54;;;;;;;7.43;4.10;;;4.20;85.10;;;;;;9177427;19;20014;-70
2024/01/13 03:28:00;;;;;;;9.70;4.40;;;4.30;85.20;;;;;;9176954;19;20025;-70
2024/01/13 03:31:07;;;;;;;8.75;4.30;;;4.20;85.20;;;;;;9174059;19;20022;-69
2024/01/13 03:34:13;;;;;;;8.93;5.03;;;4.20;85.20;;;;;;9175534;19;20026;-70
2024/01/13 03:37:21;;;;;;;8.15;4.68;;;4.20;85.20;;;;;;9173812;19;20041;-71
2024/01/13 03:40:29;;;;;;;8.95;4.85;;;4.20;85.30;;;;;;9173266;19;20014;-70
2024/01/13 03:43:36;;;;;;;13.18;5.20;;;4.30;85.30;;;;;;9173687;19;20010;-74
2024/01/13 03:46:42;;;;;;;8.98;5.00;;;4.20;85.30;;;;;;9174159;19;20091;-69
2024/01/13 03:49:50;;;;;;;6.75;4.25;;;4.20;85.30;;;;;;9174365;19;20014;-71
2024/01/13 03:52:55;;;;;;;8.90;4.97;;;4.20;85.30;;;;;;9175702;19;20034;-70
2024/01/13 03:56:08;;;;;;;11.02;5.43;;;4.20;85.30;;;;;;9175704;19;20384;-70
2024/01/13 03:59:16;;;;;;;8.30;4.82;;;4.20;85.30;;;;;;9176680;19;20018;-72
2024/01/13 04:02:25;;;;;;;10.77;5.55;;;4.20;85.30;;;;;;9175987;19;20011;-70
2024/01/13 04:05:31;;;;;;;14.70;6.25;;;4.20;85.30;;;;;;9175858;19;20017;-71
2024/01/13 04:08:39;;;;;;;11.73;6.75;;;4.20;85.30;;;;;;9174226;19;20026;-72
2024/01/13 04:11:47;;;;;;;13.48;6.78;;;4.20;85.40;;;;;;9177343;19;20015;-71
2024/01/13 04:14:55;;;;;;;14.90;7.15;;;4.20;85.40;;;;;;9174463;19;20015;-71
2024/01/13 04:18:00;;;;;;;14.10;6.82;;;4.20;85.40;;;;;;9169536;19;20010;-73
2024/01/13 04:21:08;;;;;;;14.98;7.82;;;4.20;85.40;;;;;;9175057;19;20010;-72
2024/01/13 04:24:27;;;;;;;13.73;7.68;;;4.20;85.40;;;;;;9172320;19;20010;-72
2024/01/13 04:27:37;;;;;;;16.25;8.50;;;4.20;85.50;;;;;;9173901;19;20070;-72
2024/01/13 04:30:42;;;;;;;16.83;9.10;;;4.20;85.50;;;;;;9178073;19;20032;-72
2024/01/13 04:33:50;;;;;;;16.85;8.00;;;4.20;85.50;;;;;;9183422;19;20491;-72
2024/01/13 04:36:56;;;;;;;15.88;8.70;;;4.20;85.50;;;;;;9179180;19;20086;-71
2024/01/13 04:40:03;;;;;;;15.13;8.68;;;4.20;85.50;;;;;;9183340;19;20033;-73
2024/01/13 04:43:12;;;;;;;11.93;7.38;;;4.20;85.50;;;;;;9182856;19;20024;-72
2024/01/13 04:46:19;;;;;;;16.48;8.55;;;4.20;85.50;;;;;;9183585;19;20022;-72
2024/01/13 04:49:25;;;;;;;18.88;9.60;;;4.20;85.50;;;;;;9182966;19;20472;-72
2024/01/13 04:52:32;;;;;;;19.20;9.68;;;4.20;85.50;;;;;;9183183;19;20011;-72
2024/01/13 04:55:38;;;;;;;16.02;8.68;;;4.20;85.50;;;;;;9182106;19;20015;-72
2024/01/13 04:58:49;;;;;;;17.77;8.95;;;4.20;85.60;;;;;;9181626;19;20019;-72
2024/01/13 05:02:02;;;;;;;17.13;8.40;;;4.20;85.60;;;;;;9183752;19;20006;-71
2024/01/13 05:05:09;;;;;;;15.25;8.45;;;4.20;85.60;;;;;;9181791;19;20022;-72
2024/01/13 05:08:15;;;;;;;18.10;9.45;;;4.20;85.60;;;;;;9178614;19;20472;-72
2024/01/13 05:11:22;;;;;;;18.58;8.30;;;4.20;85.60;;;;;;9180496;19;20588;-71
2024/01/13 05:14:31;;;;;;;15.18;8.82;;;4.20;85.70;;;;;;9181850;19;20019;-72
2024/01/13 05:17:42;;;;;;;;;;;4.20;85.70;;;;;;9176649;19;20014;-73
2024/01/13 05:20:48;;;;;;;15.15;8.10;;;4.20;85.70;;;;;;9183170;19;19918;-72
2024/01/13 05:23:55;;;;;;;17.08;7.78;;;4.20;85.60;;;;;;9181964;19;20021;-72
2024/01/13 05:27:01;;;;;;;17.90;9.05;;;4.20;85.60;;;;;;9180457;19;20019;-72
2024/01/13 05:30:13;;;;;;;16.02;8.40;;;4.30;85.70;;;;;;9181042;19;20010;-70
2024/01/13 05:33:20;;;;;;;15.50;8.45;;;4.20;85.70;;;;;;9181382;19;20041;-70
2024/01/13 05:36:28;;;;;;;18.17;9.02;;;4.20;85.70;;;;;;9179359;19;20022;-70
2024/01/13 05:39:33;;;;;;;13.25;7.65;;;4.30;85.70;;;;;;9180880;19;20015;-70
2024/01/13 05:42:41;;;;;;;15.85;8.50;;;4.30;85.80;;;;;;9178899;19;20033;-72
2024/01/13 05:45:49;;;;;;;16.73;8.77;;;4.30;85.80;;;;;;9180277;19;20014;-72
2024/01/13 05:48:57;;;;;;;15.07;9.13;;;4.30;85.80;;;;;;9181972;19;20015;-70
2024/01/13 05:52:03;;;;;;;17.55;9.27;;;4.30;85.70;;;;;;9181340;19;20188;-70
2024/01/13 05:55:11;;;;;;;16.80;8.82;;;4.30;85.80;;;;;;9181050;19;20018;-70
2024/01/13 05:58:16;;;;;;;15.38;8.85;;;4.30;85.90;;;;;;9178022;19;20015;-72
2024/01/13 06:01:26;;;;;;;17.30;8.52;;;4.30;85.90;;;;;;9180586;19;20023;-71
2024/01/13 06:04:36;;;;;;;15.35;8.35;;;4.20;85.80;;;;;;9180447;19;20504;-70
2024/01/13 06:07:47;;;;;;;17.08;9.25;;;4.30;85.90;;;;;;9176875;19;20024;-71
2024/01/13 06:10:53;;;;;;;15.63;8.98;;;4.30;85.90;;;;;;9179233;19;20095;-72
2024/01/13 06:14:01;;;;;;;18.75;10.20;;;4.30;85.80;;;;;;9177697;19;20021;-71
2024/01/13 06:17:09;;;;;;;15.73;8.75;;;4.30;85.80;;;;;;9174299;19;20022;-70
2024/01/13 06:20:17;;;;;;;17.85;9.20;;;4.30;85.80;;;;;;9178274;19;20027;-71
2024/01/13 06:23:22;;;;;;;16.85;9.05;;;4.30;85.80;;;;;;9178684;19;20089;-70
2024/01/13 06:26:30;;;;;;;18.50;9.90;;;4.20;85.70;;;;;;9179154;19;20010;-74
2024/01/13 06:29:35;;;;;;;20.50;10.40;;;4.30;85.80;;;;;;9177414;19;20022;-71
2024/01/13 06:32:48;;;;;;;17.33;10.18;;;4.20;85.80;;;;;;9176853;19;20019;-71
2024/01/13 06:35:54;;;;;;;19.40;10.70;;;4.20;85.80;;;;;;9178113;19;20121;-71
2024/01/13 06:39:01;;;;;;;20.00;10.25;;;4.20;85.90;;;;;;9180104;19;20365;-73
2024/01/13 06:42:08;;;;;;;20.15;12.00;;;4.20;85.90;;;;;;9179319;19;20081;-72
2024/01/13 06:45:16;;;;;;;20.20;9.82;;;4.20;85.90;;;;;;9179485;19;20007;-74
2024/01/13 06:48:24;;;;;;;21.75;11.73;;;4.20;85.90;;;;;;9179839;19;20022;-74
2024/01/13 06:51:32;;;;;;;22.08;10.55;;;4.20;85.90;;;;;;9179123;19;20019;-73
2024/01/13 06:54:37;;;;;;;20.67;10.15;;;4.20;86.00;;;;;;9176094;19;20026;-73
2024/01/13 06:57:45;;;;;;;17.70;10.13;;;4.20;85.90;;;;;;9176045;19;20014;-73
2024/01/13 07:00:51;;;;;;;18.80;9.95;;;4.30;86.60;;;;;;9178157;19;20015;-72
2024/01/13 07:04:01;;;;;;;18.88;10.50;;;4.30;86.00;;;;;;9177523;19;20372;-73
2024/01/13 07:07:08;;;;;;;23.95;10.30;;;4.30;85.90;;;;;;9174989;19;20026;-73
2024/01/13 07:10:15;;;;;;;18.27;9.80;;;4.20;85.90;;;;;;9177857;19;20006;-73
2024/01/13 07:13:21;;;;;;;15.30;9.30;;;4.20;85.90;;;;;;9178461;19;20053;-72
2024/01/13 07:16:28;;;;;;;17.25;8.50;;;4.20;85.90;;;;;;9173106;19;20397;-72
2024/01/13 07:19:39;;;;;;;16.08;8.60;;;4.20;86.00;;;;;;9177754;19;20022;-72
2024/01/13 07:22:47;;;;;;;13.88;8.20;;;4.20;86.10;;;;;;9176490;19;20033;-73
2024/01/13 07:25:56;;;;;;;17.55;8.60;;;4.20;86.00;;;;;;9176970;19;20018;-72
2024/01/13 07:29:04;;;;;;;15.70;7.55;;;4.20;86.10;;;;;;9176062;19;20010;-73
2024/01/13 07:32:09;;;;;;;13.65;7.18;;;4.20;86.10;;;;;;9177098;19;20807;-72
2024/01/13 07:35:20;;;;;;;14.40;7.63;;;4.20;86.10;;;;;;9176073;19;20029;-72
2024/01/13 07:38:25;;;;;;;18.10;7.60;;;4.20;86.20;;;;;;9174135;19;20048;-72
2024/01/13 07:41:33;;;;;;;11.82;7.03;;;4.30;86.30;;;;;;9173295;19;20018;-73
2024/01/13 07:44:39;;;;;;;14.27;7.20;;;4.30;86.30;;;;;;9172901;19;20025;-72
2024/01/13 07:47:49;;;;;;;12.00;7.13;;;4.30;86.20;;;;;;9173139;19;20015;-70
2024/01/13 07:51:01;;;;;;;13.38;7.75;;;4.30;86.20;;;;;;9171166;19;20044;-69
2024/01/13 07:54:13;;;;;;;15.65;7.97;;;4.30;86.20;;;;;;9173696;19;20527;-71
2024/01/13 07:57:20;;;;;;;13.25;7.68;;;4.30;86.20;;;;;;9171022;19;20464;-70
2024/01/13 08:00:28;;;;;;;13.55;7.68;;;4.30;86.20;;;;;;9173638;19;20086;-70
2024/01/13 08:03:34;;;;;;;15.35;7.30;;;4.30;86.20;;;;;;9171884;19;20015;-70
2024/01/13 08:06:45;;;;;;;17.55;8.38;;;4.30;86.20;;;;;;9170793;19;20134;-70
2024/01/13 08:09:50;;;;;;;14.00;7.38;;;4.30;86.30;;;;;;9173100;19;20019;-71
2024/01/13 08:13:01;;;;;;;14.88;7.60;;;4.30;86.40;;;;;;9172739;19;20022;-70
2024/01/13 08:16:09;;;;;;;15.70;8.18;;;4.30;86.40;;;;;;9169013;19;20075;-72
2024/01/13 08:19:17;;;;;;;16.63;7.80;;;4.30;86.40;;;;;;9170549;19;20626;-71
2024/01/13 08:22:26;;;;;;;14.68;7.65;;;4.30;86.40;;;;;;9175237;19;20022;-71
2024/01/13 08:25:33;;;;;;;13.82;7.10;;;4.30;86.50;;;;;;9174746;19;20583;-70
2024/01/13 08:28:39;;;;;;;15.18;7.75;;;4.30;86.50;;;;;;9174823;19;20021;-71
2024/01/13 08:31:49;;;;;;;18.52;7.43;;;4.30;86.50;;;;;;9174079;19;20519;-71
2024/01/13 08:34:55;;;;;;;17.20;7.50;;;4.40;86.60;;;;;;9174387;19;20006;-70
2024/01/13 08:38:05;;;;;;;16.25;7.88;;;4.40;86.60;;;;;;9172218;19;20353;-71
2024/01/13 08:41:11;;;;;;;14.35;7.97;;;4.40;86.70;;;;;;9171727;19;20022;-70
2024/01/13 08:44:31;;;;;;;15.18;7.50;;;4.40;86.70;;;;;;9175604;19;20022;-70
2024/01/13 08:47:36;;;;;;;15.77;8.00;;;4.50;86.70;;;;;;9172973;19;20446;-70
2024/01/13 08:50:44;;;;;;;16.38;8.30;;;4.50;86.80;;;;;;9173083;19;20014;-70
2024/01/13 08:53:52;;;;;;;15.13;7.65;;;4.50;86.70;;;;;;9174253;19;20019;-70
2024/01/13 08:57:00;;;;;;;17.95;7.90;;;4.50;86.70;;;;;;9174239;19;20373;-69
2024/01/13 09:00:08;;;;;;;15.82;8.88;;;4.60;86.80;;;;;;9173815;19;20028;-70
2024/01/13 09:03:16;;;;;;;14.02;7.25;;;4.60;86.70;;;;;;9173437;19;20011;-72
2024/01/13 09:06:22;;;;;;;17.05;7.78;;;4.60;86.70;;;;;;9172068;19;20041;-69
2024/01/13 09:09:32;;;;;;;12.80;7.60;;;4.60;86.70;;;;;;9168798;19;20011;-70
2024/01/13 09:12:37;;;;;;;13.18;6.40;;;4.60;86.70;;;;;;9168247;19;20014;-70
2024/01/13 09:15:45;;;;;;;15.73;6.68;;;4.70;86.80;;;;;;9165282;19;20357;-70
2024/01/13 09:18:50;;;;;;;15.30;7.38;;;4.70;86.80;;;;;;9176847;19;20025;-70
2024/01/13 09:22:01;;;;;;;15.27;7.30;;;4.70;86.80;;;;;;9180708;19;20015;-72
2024/01/13 09:25:10;;;;;;;12.52;6.97;;;4.70;86.70;;;;;;9180057;19;20510;-71
2024/01/13 09:28:18;;;;;;;14.48;7.15;;;4.70;86.80;;;;;;9179285;19;20010;-70
2024/01/13 09:31:24;;;;;;;12.98;7.32;;;4.70;86.70;;;;;;9181522;19;20015;-71
2024/01/13 09:34:45;;;;;;;14.52;6.75;;;4.70;86.80;;;;;;9180316;19;20042;-73
2024/01/13 09:37:52;;;;;;;10.75;6.40;;;4.70;86.80;;;;;;9181039;19;20010;-71
2024/01/13 09:41:02;;;;;;;13.57;7.10;;;4.70;86.80;;;;;;9179286;19;20018;-70
2024/01/13 09:44:15;;;;;;;11.00;6.78;;;4.70;86.80;;;;;;9182492;19;20094;-72
2024/01/13 09:47:23;;;;;;;11.75;6.82;;;4.70;87.00;;;;;;9182543;19;20506;-70
2024/01/13 09:50:28;;;;;;;10.85;6.43;;;4.70;87.50;;;;;;9179345;19;20022;-71
2024/01/13 09:53:37;;;;;;;10.05;5.82;;;4.80;87.00;;;;;;9180223;19;20018;-71
2024/01/13 09:56:49;;;;;;;9.20;5.65;;;4.80;87.60;;;;;;9181357;19;20014;-71
2024/01/13 09:59:57;;;;;;;;;;;4.80;86.90;;;;;;9179000;19;20014;-71
2024/01/13 10:03:03;;;;;;;9.75;5.57;;;4.80;86.90;;;;;;9181053;19;20066;-71
2024/01/13 10:06:13;;;;;;;11.57;6.70;;;4.80;86.80;;;;;;9179532;19;20022;-71
2024/01/13 10:09:19;;;;;;;13.57;6.07;;;4.80;86.80;;;;;;9180426;19;20137;-72
2024/01/13 10:12:43;;;;;;;10.63;6.10;;;4.80;86.80;;;;;;9178065;19;20018;-72
2024/01/13 10:15:49;;;;;;;9.07;5.97;;;4.80;86.90;;;;;;9174346;19;20109;-73
2024/01/13 10:18:58;;;;;;;11.00;6.07;;;4.80;86.90;;;;;;9178447;19;20022;-74
2024/01/13 10:22:05;;;;;;;13.85;6.40;;;4.90;86.90;;;;;;9178963;19;20047;-72
2024/01/13 10:25:13;;;;;;;12.38;5.72;;;4.80;86.90;;;;;;9178253;19;20364;-72
2024/01/13 10:28:24;;;;;;;10.93;6.28;;;4.80;87.40;;;;;;9177858;19;20002;-72
2024/01/13 10:31:33;;;;;;;10.32;6.20;;;4.90;86.90;;;;;;9178730;19;20038;-72
2024/01/13 10:34:50;;;;;;;14.25;7.10;;;4.80;86.90;;;;;;9179440;19;20015;-72
2024/01/13 10:37:59;;;;;;;11.90;7.20;;;4.90;87.00;;;;;;9178908;19;20018;-72
2024/01/13 10:41:05;;;;;;;11.57;7.20;;;4.90;87.00;;;;;;9177709;19;20650;-72
2024/01/13 10:44:18;;;;;;;12.80;7.82;;;4.90;87.10;;;;;;9179487;19;20373;-71
2024/01/13 10:47:28;;;;;;;17.00;9.27;;;4.90;87.70;;;;;;9179340;19;20031;-72
2024/01/13 10:50:37;;;;;;;15.35;7.88;;;4.90;87.10;;;;;;9178931;19;20014;-71
2024/01/13 10:53:44;;;;;;;15.90;8.35;;;4.90;87.10;;;;;;9178744;19;20018;-71
2024/01/13 10:56:52;;;;;;;17.75;8.25;;;4.90;87.00;;;;;;9176119;19;20111;-71
2024/01/13 11:00:04;;;;;;;16.40;8.90;;;4.90;87.00;;;;;;9177258;19;20019;-71
2024/01/13 11:03:18;;;;;;;18.40;9.38;;;4.90;87.00;;;;;;9176928;19;20018;-71
2024/01/13 11:06:24;;;;;;;22.70;10.30;;;5.00;87.00;;;;;;9176050;19;20022;-71
2024/01/13 11:09:32;;;;;;;19.95;9.20;;;4.90;86.90;;;;;;9176147;19;20382;-71
2024/01/13 11:12:43;;;;;;;20.65;10.75;;;5.00;87.10;;;;;;9177233;19;20018;-71
2024/01/13 11:16:01;;;;;;;26.33;10.87;;;5.00;87.00;;;;;;9173363;19;20034;-71
2024/01/13 11:19:09;;;;;;;27.23;11.57;;;5.00;87.00;;;;;;9177354;19;20048;-72
2024/01/13 11:22:36;;;;;;;22.95;10.70;;;5.00;87.00;;;;;;9177192;19;20018;-73
2024/01/13 11:25:45;;;;;;;22.80;10.85;;;5.00;87.10;;;;;;9177123;19;20014;-73
2024/01/13 11:28:54;;;;;;;30.60;12.57;;;5.00;87.00;;;;;;9176955;19;20022;-74
2024/01/13 11:32:04;;;;;;;27.75;12.75;;;5.00;87.00;;;;;;9175414;19;20019;-73
2024/01/13 11:35:22;;;;;;;27.75;13.30;;;5.00;87.00;;;;;;9176414;19;20026;-73
2024/01/13 11:38:28;;;;;;;27.85;13.07;;;5.00;87.00;;;;;;9177220;19;20018;-73
2024/01/13 11:41:40;;;;;;;29.67;13.68;;;5.00;87.10;;;;;;9170737;19;20010;-73
2024/01/13 11:44:49;;;;;;;40.10;15.38;;;5.00;87.10;;;;;;9174254;19;20370;-73
2024/01/13 11:48:35;;;;;;;34.63;15.15;;;5.00;87.00;;;;;;9177045;19;20014;-73
2024/01/13 11:51:59;;;;;;;26.03;11.97;;;5.00;87.10;;;;;;9176159;19;20014;-73
2024/01/13 11:55:08;;;;;;;33.03;16.38;;;5.00;87.10;;;;;;9173903;19;20018;-73
2024/01/13 11:58:14;;;;;;;38.22;16.83;;;5.00;87.10;;;;;;9176460;19;20030;-73
2024/01/13 12:01:21;;;;;;;39.17;17.48;;;5.00;87.10;;;;;;9174164;19;20014;-73
2024/01/13 12:04:42;;;;;;;32.10;16.50;;;5.00;87.20;;;;;;9175146;19;20018;-76
2024/01/13 12:07:50;;;;;;;38.20;18.20;;;5.00;87.10;;;;;;9173006;19;20015;-77
2024/01/13 12:10:56;;;;;;;48.58;18.55;;;5.00;87.20;;;;;;9176133;19;20056;-72
2024/01/13 12:14:05;;;;;;;40.03;18.08;;;5.00;87.20;;;;;;9169615;19;20373;-72
2024/01/13 12:17:10;;;;;;;42.60;19.95;;;5.10;87.30;;;;;;9167946;19;20018;-72
2024/01/13 12:20:20;;;;;;;43.08;20.48;;;5.10;87.30;;;;;;9172992;19;20022;-72
2024/01/13 12:23:26;;;;;;;39.75;19.08;;;5.10;87.30;;;;;;9175331;19;20018;-72
2024/01/13 12:26:37;;;;;;;41.28;17.75;;;5.10;87.20;;;;;;9173616;19;20022;-73
2024/01/13 12:29:42;;;;;;;45.67;20.25;;;5.20;87.20;;;;;;9172832;19;20464;-71
2024/01/13 12:32:54;;;;;;;44.28;20.92;;;5.10;87.20;;;;;;9175040;19;20111;-70
2024/01/13 12:36:05;;;;;;;46.40;20.95;;;5.20;87.20;;;;;;9171713;19;20026;-71
2024/01/13 12:39:14;;;;;;;47.23;22.03;;;5.20;87.20;;;;;;9174383;19;20014;-71
2024/01/13 12:42:19;;;;;;;43.40;21.20;;;5.20;87.20;;;;;;9174283;19;21583;-71
2024/01/13 12:45:28;;;;;;;39.85;19.92;;;5.20;87.20;;;;;;9172734;19;20022;-71
2024/01/13 12:48:35;;;;;;;47.05;20.60;;;5.20;87.10;;;;;;9174546;19;20026;-70
2024/01/13 12:52:03;;;;;;;41.72;20.52;;;5.30;87.10;;;;;;9178054;19;20015;-71
2024/01/13 12:55:10;;;;;;;44.97;20.67;;;5.30;87.10;;;;;;9181650;19;20602;-71
2024/01/13 12:58:22;;;;;;;;;;;5.30;87.10;;;;;;9184724;19;20022;-71
2024/01/13 13:01:28;;;;;;;40.15;18.88;;;5.30;87.10;;;;;;9179489;19;20412;-71
2024/01/13 13:04:36;;;;;;;41.97;19.27;;;5.30;87.00;;;;;;9182890;19;20027;-71
2024/01/13 13:07:44;;;;;;;42.65;19.58;;;5.30;87.00;;;;;;9180268;19;20011;-71
2024/01/13 13:10:51;;;;;;;42.28;19.60;;;5.30;87.10;;;;;;9182175;19;20018;-72
2024/01/13 13:14:01;;;;;;;42.05;20.48;;;5.30;87.00;;;;;;9182009;19;20607;-70
2024/01/13 13:17:09;;;;;;;42.75;20.85;;;5.30;87.00;;;;;;9178365;19;20022;-70
2024/01/13 13:20:14;;;;;;;38.30;19.02;;;5.30;87.00;;;;;;9180258;19;20447;-71
2024/01/13 13:23:25;;;;;;;44.28;18.35;;;5.40;87.10;;;;;;9181900;19;20488;-71
2024/01/13 13:26:30;;;;;;;38.45;18.15;;;5.40;87.10;;;;;;9180572;19;20383;-70
2024/01/13 13:29:38;;;;;;;47.20;21.02;;;5.40;87.10;;;;;;9181718;19;20014;-70
2024/01/13 13:32:43;;;;;;;38.72;20.05;;;5.40;87.10;;;;;;9181097;19;20473;-72
2024/01/13 13:35:52;;;;;;;35.78;19.30;;;5.40;87.00;;;;;;9179356;19;20021;-70
2024/01/13 13:39:00;;;;;;;41.03;19.27;;;5.40;87.00;;;;;;9179956;19;20025;-72
2024/01/13 13:42:08;;;;;;;41.10;20.10;;;5.40;87.00;;;;;;9176230;19;20018;-72
2024/01/13 13:45:14;;;;;;;40.78;19.17;;;5.50;87.10;;;;;;9179063;19;20535;-72
2024/01/13 13:48:23;;;;;;;52.47;20.50;;;5.50;87.10;;;;;;9176544;19;20018;-72
2024/01/13 13:51:29;;;;;;;46.33;20.73;;;5.50;87.10;;;;;;9164723;19;20025;-72
2024/01/13 13:54:39;;;;;;;45.72;20.40;;;5.50;87.10;;;;;;9178740;19;20018;-71
2024/01/13 13:57:45;;;;;;;49.08;19.83;;;5.50;87.10;;;;;;9173671;19;20033;-72
2024/01/13 14:00:55;;;;;;;41.38;20.02;;;5.50;87.00;;;;;;9169461;19;20405;-73
2024/01/13 14:04:03;;;;;;;48.67;21.52;;;5.50;87.00;;;;;;9170568;19;20010;-71
2024/01/13 14:07:10;;;;;;;42.08;20.98;;;5.50;86.90;;;;;;9175981;19;20026;-72
2024/01/13 14:10:19;;;;;;;52.75;21.75;;;5.50;86.90;;;;;;9173968;19;20046;-72
2024/01/13 14:13:27;;;;;;;43.88;20.85;;;5.50;86.90;;;;;;9179366;19;20702;-72
2024/01/13 14:16:32;;;;;;;43.22;21.10;;;5.50;86.90;;;;;;9173740;19;20070;-72
2024/01/13 14:19:40;;;;;;;44.05;20.00;;;5.60;86.90;;;;;;9179725;19;20022;-72
2024/01/13 14:22:45;;;;;;;50.50;21.08;;;5.50;86.90;;;;;;9176444;19;20011;-72
2024/01/13 14:25:56;;;;;;;45.50;19.70;;;5.50;86.90;;;;;;9178890;19;20692;-72
2024/01/13 14:29:01;;;;;;;40.40;19.92;;;5.60;86.90;;;;;;9177919;19;20018;-72
2024/01/13 14:32:09;;;;;;;49.08;22.23;;;5.60;86.90;;;;;;9178093;19;20487;-72
2024/01/13 14:35:15;;;;;;;48.55;20.73;;;5.50;86.80;;;;;;9176043;19;20448;-73
2024/01/13 14:38:28;;;;;;;46.58;20.70;;;5.60;86.90;;;;;;9176706;19;20026;-73
2024/01/13 14:41:36;;;;;;;43.45;21.25;;;5.50;86.80;;;;;;9176607;19;20018;-73
2024/01/13 14:44:45;;;;;;;47.25;20.95;;;5.50;86.90;;;;;;9178847;19;20021;-73
2024/01/13 14:47:59;;;;;;;51.42;21.77;;;5.50;86.90;;;;;;9177433;19;20030;-72
2024/01/13 14:51:07;;;;;;;50.67;21.73;;;5.50;86.80;;;;;;9178144;19;20033;-72
2024/01/13 14:54:13;;;;;;;42.33;20.48;;;5.50;86.90;;;;;;9176351;19;20056;-72
2024/01/13 14:57:23;;;;;;;53.75;21.80;;;5.60;86.90;;;;;;9177467;19;20018;-74
2024/01/13 15:00:35;;;;;;;40.92;21.30;;;5.50;86.90;;;;;;9177649;19;20011;-72
2024/01/13 15:03:44;;;;;;;51.22;19.60;;;5.50;86.80;;;;;;9176456;19;20094;-72
2024/01/13 15:06:51;;;;;;;47.05;20.95;;;5.50;86.90;;;;;;9175736;19;20022;-72
2024/01/13 15:09:59;;;;;;;44.72;20.45;;;5.50;87.40;;;;;;9178511;19;20377;-72
2024/01/13 15:13:07;;;;;;;49.28;21.27;;;5.50;86.80;;;;;;9179106;19;20052;-72
2024/01/13 15:16:15;;;;;;;42.58;19.30;;;5.50;86.80;;;;;;9172987;19;20019;-72
2024/01/13 15:19:20;;;;;;;42.88;19.33;;;5.50;86.90;;;;;;9178140;19;20019;-72
2024/01/13 15:22:28;;;;;;;38.28;18.45;;;5.50;86.80;;;;;;9174904;19;20019;-72
2024/01/13 15:25:33;;;;;;;39.22;19.38;;;5.50;86.80;;;;;;9176522;19;20056;-72
2024/01/13 15:28:44;;;;;;;46.47;17.80;;;5.50;86.80;;;;;;9175890;19;20011;-72
2024/01/13 15:31:49;;;;;;;43.35;18.70;;;5.40;86.80;;;;;;9177232;19;20022;-72
2024/01/13 15:34:59;;;;;;;37.90;18.58;;;5.40;86.80;;;;;;9178185;19;20112;-72
2024/01/13 15:38:21;;;;;;;40.83;17.38;;;5.40;86.80;;;;;;9176742;19;20021;-72
2024/01/13 15:41:28;;;;;;;42.45;17.80;;;5.40;86.80;;;;;;9174743;19;20014;-72
2024/01/13 15:44:36;;;;;;;33.30;16.23;;;5.40;86.80;;;;;;9175986;19;20020;-72
2024/01/13 15:47:50;;;;;;;36.58;15.65;;;5.40;86.80;;;;;;9176097;19;20010;-73
2024/01/13 15:51:03;;;;;;;35.00;15.48;;;5.40;86.80;;;;;;9176499;19;20018;-73
2024/01/13 15:54:11;;;;;;;34.80;14.25;;;5.40;86.80;;;;;;9177779;19;20034;-72
2024/01/13 15:57:17;;;;;;;31.88;13.40;;;5.40;86.70;;;;;;9175635;19;20364;-72
2024/01/13 16:00:27;;;;;;;33.13;14.20;;;5.40;86.80;;;;;;9175760;19;20026;-70
2024/01/13 16:03:33;;;;;;;29.10;14.30;;;5.30;86.80;;;;;;9175328;19;20019;-71
2024/01/13 16:06:41;;;;;;;32.33;14.38;;;5.30;86.80;;;;;;9175308;19;20015;-71
2024/01/13 16:09:47;;;;;;;32.65;14.13;;;5.30;86.90;;;;;;9173926;19;20017;-71
2024/01/13 16:12:55;;;;;;;32.75;14.63;;;5.30;86.90;;;;;;9175763;19;20030;-71
2024/01/13 16:16:04;;;;;;;33.42;14.88;;;5.30;86.90;;;;;;9172362;19;20476;-70
2024/01/13 16:19:12;;;;;;;30.63;15.07;;;5.30;86.90;;;;;;9176045;19;20571;-70